Time;durP1;ratioP1;P1;durP2;ratioP2;P2;SDS_P1;SDS_P2;PMS_P1;PMS_P2;Temp;Humidity;BMP_temperature;BMP_pressure;BME280_temperature;BME280_humidity;BME280_pressure;Samples;Min_cycle;Max_cycle;Signal;HPM_P1;HPM_P2
2022/06/14 09:47:41;;;;;;;9.98;2.15;;;;;;;19.46;55.31;101807.97;4935501;28;119838;-81
2022/06/14 09:50:45;;;;;;;5.63;1.63;;;;;;;19.42;55.28;101807.41;4914246;28;121120;-81
2022/06/14 09:53:37;;;;;;;9.55;2.15;;;;;;;19.40;55.87;101809.13;4939357;28;119853;-80
2022/06/14 09:56:25;;;;;;;7.10;2.40;;;;;;;19.41;56.48;101811.44;4947872;28;121725;-81
2022/06/14 09:59:31;;;;;;;5.53;1.98;;;;;;;19.45;56.71;101816.81;4944707;28;119817;-81
2022/06/14 10:02:13;;;;;;;13.45;2.60;;;;;;;19.50;56.93;101802.97;4944710;28;119981;-81
2022/06/14 10:04:54;;;;;;;8.38;2.20;;;;;;;19.56;57.01;101814.94;4948633;28;120063;-81
2022/06/14 10:07:44;;;;;;;7.82;2.70;;;;;;;19.61;57.08;101811.47;4930844;28;120094;-81
2022/06/14 10:10:18;;;;;;;8.13;2.10;;;;;;;19.66;57.44;101818.38;4931825;28;120497;-80
2022/06/14 10:13:31;;;;;;;9.10;2.70;;;;;;;19.66;56.56;101815.59;4931031;28;120209;-82
2022/06/14 10:16:18;;;;;;;12.40;2.95;;;;;;;19.66;56.78;101820.41;4935616;28;120121;-81
2022/06/14 10:19:03;;;;;;;10.63;2.95;;;;;;;19.64;56.86;101818.09;4950420;28;123520;-81
2022/06/14 10:21:34;;;;;;;;;;;;;;;19.61;56.52;101822.59;4919417;28;119850;-81
2022/06/14 10:24:18;;;;;;;8.40;2.63;;;;;;;19.62;56.84;101820.59;4923669;28;122259;-81
2022/06/14 10:30:09;;;;;;;7.13;2.42;;;;;;;19.49;57.43;101812.56;4930987;28;119869;-82
2022/06/14 10:33:05;;;;;;;10.55;2.90;;;;;;;19.54;57.59;101825.03;4908739;28;120242;-81
2022/06/14 10:35:42;;;;;;;9.85;2.63;;;;;;;19.55;57.51;101830.13;4922392;28;123119;-79
2022/06/14 10:38:25;;;;;;;11.05;2.38;;;;;;;19.54;57.20;101819.47;4918180;28;119773;-79
2022/06/14 10:41:05;;;;;;;7.32;2.33;;;;;;;19.46;57.07;101812.75;4950479;28;120514;-80
2022/06/14 10:43:50;;;;;;;8.60;2.85;;;;;;;19.47;57.19;101819.84;4931351;28;120140;-80
2022/06/14 10:46:19;;;;;;;8.60;2.50;;;;;;;19.44;57.25;101818.06;4917571;28;121974;-81
2022/06/14 10:49:05;;;;;;;10.82;2.55;;;;;;;19.46;57.77;101813.53;4933696;28;120650;-82
2022/06/14 10:51:43;;;;;;;11.85;2.63;;;;;;;19.48;57.59;101819.38;4931445;28;119547;-80
2022/06/14 10:54:08;;;;;;;8.60;2.20;;;;;;;19.47;57.82;101809.50;4933533;28;122225;-82
2022/06/14 10:56:49;;;;;;;9.07;2.38;;;;;;;19.49;57.96;101820.13;4949869;28;120057;-82
2022/06/14 10:59:15;;;;;;;8.40;2.60;;;;;;;19.47;57.77;101828.22;4930527;28;119798;-82
2022/06/14 11:02:09;;;;;;;8.35;2.10;;;;;;;19.44;57.35;101826.41;4875808;28;119661;-82
2022/06/14 11:04:34;;;;;;;9.77;2.20;;;;;;;19.42;57.43;101823.34;4861681;28;121594;-81
2022/06/14 11:07:10;;;;;;;5.88;2.00;;;;;;;19.29;57.54;101813.28;4887573;28;121656;-81
2022/06/14 11:09:54;;;;;;;9.23;2.28;;;;;;;19.41;57.16;101833.69;4914178;28;123054;-81
2022/06/14 11:12:44;;;;;;;8.60;2.50;;;;;;;19.40;57.07;101823.03;4931267;28;119821;-79
2022/06/14 11:15:42;;;;;;;9.38;2.20;;;;;;;19.37;57.50;101821.22;4930383;28;122796;-79
2022/06/14 11:18:20;;;;;;;9.50;2.20;;;;;;;19.38;57.73;101826.28;4929762;28;123035;-82
2022/06/14 11:20:55;;;;;;;9.63;2.40;;;;;;;19.36;58.51;101826.03;4931214;28;119654;-81
2022/06/14 11:23:35;;;;;;;7.05;2.03;;;;;;;19.37;58.01;101827.53;4937279;28;122131;-79
2022/06/14 11:26:22;;;;;;;8.18;2.65;;;;;;;19.40;57.81;101832.16;4932916;28;122069;-79
2022/06/14 11:28:57;;;;;;;8.32;2.33;;;;;;;19.41;58.13;101819.78;4953515;28;119993;-82
2022/06/14 11:31:31;;;;;;;8.68;2.38;;;;;;;19.44;57.69;101823.63;4932264;28;123651;-82
2022/06/14 11:34:09;;;;;;;11.02;2.35;;;;;;;19.47;57.30;101820.63;4926443;28;120360;-82
2022/06/14 11:37:01;;;;;;;6.72;2.60;;;;;;;19.49;57.32;101818.13;4917630;28;121660;-82
2022/06/14 11:39:42;;;;;;;8.25;1.85;;;;;;;19.47;56.54;101815.06;4933415;28;122886;-82
2022/06/14 11:42:25;;;;;;;6.90;1.90;;;;;;;19.54;56.91;101822.25;4930676;28;119696;-82
2022/06/14 11:45:25;;;;;;;7.25;2.30;;;;;;;19.56;57.04;101831.66;4913006;28;119913;-79
2022/06/14 11:48:07;;;;;;;8.32;2.05;;;;;;;19.49;57.03;101834.81;4948661;28;119941;-79
2022/06/14 11:50:48;;;;;;;8.07;2.30;;;;;;;19.51;57.44;101834.34;4922628;28;119949;-79
2022/06/14 11:53:46;;;;;;;10.32;2.13;;;;;;;19.45;57.64;101828.69;4925375;28;122717;-81
2022/06/14 11:56:24;;;;;;;9.95;2.60;;;;;;;19.45;58.55;101831.47;4913033;28;119605;-79
2022/06/14 11:59:13;;;;;;;7.35;2.40;;;;;;;19.44;58.57;101838.28;4914115;28;121336;-79
2022/06/14 12:01:51;;;;;;;8.02;2.35;;;;;;;19.42;58.43;101840.81;4935751;28;120226;-82
2022/06/14 12:04:38;;;;;;;8.40;2.72;;;;;;;19.40;58.52;101829.38;4929904;28;119507;-82
2022/06/14 12:07:17;;;;;;;;;;;;;;;19.39;58.56;101844.53;4930993;28;122488;-82
2022/06/14 12:10:20;;;;;;;9.05;2.38;;;;;;;19.39;59.14;101847.31;4946147;28;119973;-82
2022/06/14 12:12:58;;;;;;;11.90;3.28;;;;;;;19.37;59.06;101840.69;4946434;28;119974;-82
2022/06/14 12:15:36;;;;;;;9.77;2.67;;;;;;;19.35;59.90;101840.41;4949412;28;120056;-82
2022/06/14 12:18:08;;;;;;;6.53;2.30;;;;;;;19.27;59.77;101824.13;4931227;28;119944;-80
2022/06/14 12:20:41;;;;;;;8.82;2.60;;;;;;;19.19;60.45;101814.66;4946428;28;122026;-82
2022/06/14 12:23:28;;;;;;;12.18;2.60;;;;;;;19.33;60.36;101836.09;4934912;28;122877;-81
2022/06/14 12:28:57;;;;;;;10.27;2.53;;;;;;;19.35;59.90;101832.84;4949044;28;120054;-82
2022/06/14 12:31:51;;;;;;;8.73;2.50;;;;;;;19.37;59.75;101829.56;4916370;28;121809;-82
2022/06/14 12:34:24;;;;;;;;;;;;;;;19.38;59.72;101828.31;4939710;28;119905;-82
2022/06/14 12:36:59;;;;;;;11.80;2.65;;;;;;;19.46;59.99;101823.91;4946259;28;119819;-82
2022/06/14 12:39:34;;;;;;;11.32;2.70;;;;;;;19.42;60.15;101812.22;4933408;28;122974;-82
2022/06/14 12:42:26;;;;;;;9.98;2.53;;;;;;;19.53;59.66;101821.50;4929691;28;122015;-82
2022/06/14 12:45:24;;;;;;;8.73;2.80;;;;;;;19.56;58.99;101828.09;4927653;28;122921;-80
2022/06/14 12:48:14;;;;;;;9.93;2.70;;;;;;;19.59;58.86;101833.47;4917198;28;120516;-79
2022/06/14 12:50:54;;;;;;;9.80;2.92;;;;;;;19.60;58.72;101831.44;4912528;28;121303;-79
2022/06/14 12:53:35;;;;;;;11.13;2.45;;;;;;;19.61;58.39;101835.75;4938460;28;123644;-80
2022/06/14 12:56:24;;;;;;;10.02;2.83;;;;;;;19.55;58.22;101821.00;4945782;28;120269;-79
2022/06/14 12:59:11;;;;;;;10.60;2.60;;;;;;;19.60;58.71;101837.78;4913230;28;120913;-82
2022/06/14 13:01:57;;;;;;;8.88;2.10;;;;;;;19.58;58.75;101828.38;4944843;28;120045;-80
2022/06/14 13:05:11;;;;;;;9.30;2.50;;;;;;;19.55;58.63;101832.13;4949907;28;119821;-79
2022/06/14 13:07:44;;;;;;;12.10;2.55;;;;;;;19.50;58.37;101821.66;4896469;28;121392;-82
2022/06/14 13:10:31;;;;;;;11.68;2.53;;;;;;;19.53;58.63;101827.06;4929120;28;119754;-82
2022/06/14 13:13:39;;;;;;;9.35;2.70;;;;;;;19.50;58.95;101821.66;4926116;28;119738;-82
2022/06/14 13:16:20;;;;;;;10.88;2.72;;;;;;;19.50;58.54;101830.78;4944744;28;120064;-82
2022/06/14 13:18:46;;;;;;;10.40;2.53;;;;;;;19.48;58.83;101826.97;4929544;28;120683;-80
2022/06/14 13:21:18;;;;;;;9.18;2.55;;;;;;;19.47;58.89;101814.28;4912850;28;122255;-79
2022/06/14 13:23:56;;;;;;;8.67;2.63;;;;;;;19.46;59.04;101823.91;4933064;28;119954;-80
2022/06/14 13:26:46;;;;;;;9.77;2.92;;;;;;;19.45;59.80;101823.13;4932121;28;119672;-80
2022/06/14 13:29:12;;;;;;;9.93;2.97;;;;;;;19.43;58.57;101819.31;4919480;28;122470;-80
2022/06/14 13:31:48;;;;;;;31.90;4.30;;;;;;;19.41;58.76;101819.78;4948203;28;119779;-81
2022/06/14 13:34:51;;;;;;;9.32;2.80;;;;;;;19.39;59.41;101813.16;4932491;28;121895;-82
2022/06/14 13:37:21;;;;;;;7.95;2.45;;;;;;;19.38;59.15;101811.63;4928641;28;120078;-82
2022/06/14 13:40:22;;;;;;;8.35;2.50;;;;;;;19.38;58.54;101815.16;4928742;28;119762;-82
2022/06/14 13:42:51;;;;;;;7.93;2.63;;;;;;;19.39;58.21;101813.16;4915960;28;120050;-82
2022/06/14 13:45:54;;;;;;;12.05;2.67;;;;;;;19.38;58.10;101812.38;4933849;28;119999;-82
2022/06/14 13:48:31;;;;;;;7.97;2.58;;;;;;;19.40;57.91;101818.25;4916380;28;119673;-82
2022/06/14 13:51:36;;;;;;;10.77;2.78;;;;;;;19.41;58.10;101816.25;4933975;28;119754;-82
2022/06/14 13:54:20;;;;;;;8.45;2.45;;;;;;;19.48;58.12;101821.41;4944130;28;119944;-79
2022/06/14 13:56:57;;;;;;;7.57;2.90;;;;;;;19.55;58.38;101809.88;4915674;28;122751;-82
2022/06/14 13:59:26;;;;;;;7.95;2.45;;;;;;;19.59;57.06;101808.41;4939345;28;122858;-82
2022/06/14 14:02:26;;;;;;;9.80;2.80;;;;;;;19.63;56.96;101811.75;4951228;28;120122;-82
2022/06/14 14:05:02;;;;;;;8.27;2.63;;;;;;;19.66;57.80;101812.06;4967575;28;119534;-82
2022/06/14 14:07:38;;;;;;;7.82;2.83;;;;;;;19.66;57.95;101817.63;4933641;28;123364;-81
2022/06/14 14:10:06;;;;;;;9.73;2.80;;;;;;;19.62;56.98;101821.34;4951273;28;120306;-82
2022/06/14 14:12:41;;;;;;;10.73;2.40;;;;;;;19.61;57.93;101810.72;4951109;28;119971;-82
2022/06/14 14:15:32;;;;;;;8.05;2.50;;;;;;;19.60;58.03;101818.28;4969142;28;120152;-79
2022/06/14 14:18:11;;;;;;;9.00;2.42;;;;;;;19.65;58.25;101816.84;4933327;28;119730;-81
2022/06/14 14:20:43;;;;;;;9.73;2.13;;;;;;;19.67;58.50;101816.38;4950342;28;123153;-79
2022/06/14 14:23:28;;;;;;;9.35;2.53;;;;;;;19.70;58.71;101823.75;4961552;28;119879;-82
2022/06/14 14:25:57;;;;;;;6.45;2.45;;;;;;;19.72;57.97;101807.31;4912503;28;121023;-82
2022/06/14 14:28:49;;;;;;;8.43;2.50;;;;;;;19.77;58.45;101810.16;4947516;28;120482;-81
2022/06/14 14:31:25;;;;;;;9.15;2.30;;;;;;;19.85;57.63;101807.72;4900416;28;119921;-81
2022/06/14 14:34:01;;;;;;;7.82;2.30;;;;;;;19.90;57.52;101798.69;4939128;28;119518;-81
2022/06/14 14:36:52;;;;;;;6.97;2.17;;;;;;;19.95;57.09;101800.00;4931310;28;123301;-82
2022/06/14 14:39:29;;;;;;;8.45;2.08;;;;;;;19.98;56.82;101794.22;4919020;28;119746;-82
2022/06/14 14:42:16;;;;;;;5.63;1.90;;;;;;;20.03;56.51;101792.75;4931283;28;122165;-81
2022/06/14 14:45:12;;;;;;;6.57;2.40;;;;;;;20.06;56.11;101786.19;4949100;28;119989;-79
2022/06/14 14:47:48;;;;;;;9.85;2.40;;;;;;;20.09;56.09;101797.09;4901220;28;120939;-81
2022/06/14 14:50:40;;;;;;;5.65;1.95;;;;;;;20.11;56.17;101794.63;4914706;28;123666;-82
2022/06/14 14:53:28;;;;;;;6.85;1.90;;;;;;;20.15;56.38;101789.59;4945289;28;119864;-81
2022/06/14 14:56:10;;;;;;;7.32;2.13;;;;;;;20.20;56.18;101791.66;4935302;28;119978;-82
2022/06/14 14:58:40;;;;;;;5.65;2.08;;;;;;;20.22;56.04;101789.16;4932180;28;122139;-81
2022/06/14 15:07:21;;;;;;;6.47;2.10;;;;;;;20.27;56.20;101778.56;4946807;28;119631;-82
2022/06/14 15:09:54;;;;;;;7.15;2.35;;;;;;;20.23;55.92;101778.78;4914961;28;122505;-82
2022/06/14 15:12:27;;;;;;;9.05;2.17;;;;;;;20.28;56.12;101789.22;4929751;28;120402;-79
2022/06/14 15:15:24;;;;;;;9.25;2.38;;;;;;;20.26;56.58;101782.59;4914806;28;120223;-79
2022/06/14 15:20:59;;;;;;;9.32;2.15;;;;;;;20.24;56.38;101783.84;4942664;28;122983;-79
2022/06/14 15:23:28;;;;;;;13.18;2.58;;;;;;;20.28;56.66;101786.41;4927156;28;120417;-82
2022/06/14 15:25:55;;;;;;;7.22;2.20;;;;;;;20.28;56.66;101796.81;4940619;28;119813;-82
2022/06/14 15:28:21;;;;;;;8.38;2.47;;;;;;;20.26;56.63;101794.50;4943830;28;123060;-81
2022/06/14 15:30:52;;;;;;;10.68;2.45;;;;;;;20.23;56.66;101789.91;4956483;28;119804;-82
2022/06/14 15:33:36;;;;;;;9.40;2.42;;;;;;;20.21;56.99;101792.44;4921806;28;121713;-82
2022/06/14 15:36:07;;;;;;;10.50;2.65;;;;;;;20.12;57.14;101787.78;4942726;28;119822;-82
2022/06/14 15:38:43;;;;;;;9.00;2.20;;;;;;;20.11;57.53;101783.47;4946328;28;121774;-81
2022/06/14 15:41:15;;;;;;;6.65;2.40;;;;;;;20.06;56.32;101781.38;4958234;28;120854;-82
2022/06/14 15:44:01;;;;;;;8.93;2.50;;;;;;;20.00;57.05;101769.41;4948230;28;120640;-82
2022/06/14 15:46:29;;;;;;;6.32;2.20;;;;;;;19.97;57.67;101784.31;4944148;28;120034;-81
2022/06/14 15:49:07;;;;;;;9.18;2.58;;;;;;;19.93;57.24;101784.53;4934420;28;120311;-82
2022/06/14 15:51:34;;;;;;;6.88;2.05;;;;;;;19.87;57.29;101769.81;4959157;28;119529;-82
2022/06/14 15:54:02;;;;;;;7.53;2.08;;;;;;;19.82;57.77;101772.50;4946954;28;120298;-81
2022/06/14 15:56:42;;;;;;;7.18;2.63;;;;;;;19.79;57.15;101760.31;4911630;28;120969;-82
2022/06/14 15:59:19;;;;;;;7.88;2.25;;;;;;;19.82;57.76;101761.38;4944751;28;121946;-81
2022/06/14 16:01:45;;;;;;;6.90;1.90;;;;;;;19.78;57.34;101767.16;4960865;28;123117;-81
2022/06/14 16:04:21;;;;;;;7.68;2.28;;;;;;;19.78;57.07;101763.59;4930963;28;120040;-81
2022/06/14 16:07:01;;;;;;;10.43;2.83;;;;;;;19.79;57.72;101765.13;4948262;28;119654;-81
2022/06/14 16:09:58;;;;;;;11.27;3.45;;;;;;;19.80;56.88;101759.06;4911902;28;122689;-80
2022/06/14 16:12:29;;;;;;;9.60;2.70;;;;;;;19.80;57.26;101749.94;4941403;28;120211;-80
2022/06/14 16:14:58;;;;;;;8.38;2.33;;;;;;;19.86;56.71;101756.34;4948115;28;121166;-80
2022/06/14 16:17:45;;;;;;;7.38;2.25;;;;;;;19.88;58.07;101759.44;4944472;28;120016;-80
2022/06/14 16:20:32;;;;;;;13.30;2.80;;;;;;;19.89;57.23;101755.38;4933191;28;121986;-80
2022/06/14 16:23:03;;;;;;;7.43;2.53;;;;;;;19.84;57.15;101754.03;4932640;28;121548;-80
2022/06/14 16:25:42;;;;;;;12.05;2.50;;;;;;;19.89;57.94;101760.97;4946539;28;119786;-80
2022/06/14 16:28:12;;;;;;;7.18;2.40;;;;;;;19.89;57.96;101758.16;4938801;28;120884;-80
2022/06/14 16:30:47;;;;;;;8.05;2.67;;;;;;;19.89;58.63;101758.94;4930108;28;122307;-80
2022/06/14 16:33:26;;;;;;;6.00;2.10;;;;;;;19.87;57.92;101757.88;4946426;28;119598;-80
2022/06/14 16:36:08;;;;;;;8.65;2.45;;;;;;;19.83;57.55;101748.97;4944360;28;122051;-80
2022/06/14 16:38:45;;;;;;;7.65;2.35;;;;;;;19.84;57.63;101754.03;4932695;28;119839;-80
2022/06/14 16:41:37;;;;;;;9.15;2.60;;;;;;;19.82;58.31;101762.13;4916096;28;120263;-80
2022/06/14 16:44:31;;;;;;;7.40;2.28;;;;;;;19.80;58.24;101752.75;4929988;28;122730;-80
2022/06/14 16:47:04;;;;;;;;;;;;;;;19.77;57.92;101759.28;4955129;28;120091;-80
2022/06/14 16:49:48;;;;;;;10.38;2.65;;;;;;;19.74;57.70;101755.47;4947077;28;122015;-80
2022/06/14 16:52:23;;;;;;;;;;;;;;;19.72;57.92;101754.44;4923114;28;123148;-80
2022/06/14 16:55:01;;;;;;;10.00;2.60;;;;;;;19.69;57.31;101763.75;4926571;28;120239;-80
2022/06/14 16:57:53;;;;;;;7.32;2.47;;;;;;;19.65;57.98;101747.28;4928675;28;122412;-81
2022/06/14 17:00:35;;;;;;;9.18;2.90;;;;;;;19.67;57.33;101746.78;4952354;28;122819;-82
2022/06/14 17:03:28;;;;;;;9.18;2.70;;;;;;;19.66;57.55;101740.44;4937381;28;122165;-81
2022/06/14 17:06:27;;;;;;;10.45;2.70;;;;;;;19.65;57.91;101741.69;4946888;28;124780;-81
2022/06/14 17:09:01;;;;;;;6.25;2.28;;;;;;;19.63;57.61;101744.94;4922689;28;122010;-80
2022/06/14 17:11:34;;;;;;;7.88;2.88;;;;;;;19.61;57.38;101744.66;4912680;28;122273;-80
2022/06/14 17:14:08;;;;;;;9.27;2.50;;;;;;;19.57;56.93;101746.91;4942954;28;123586;-82
2022/06/14 17:16:41;;;;;;;6.50;2.50;;;;;;;19.59;58.05;101744.41;4943550;28;120239;-80
2022/06/14 17:19:29;;;;;;;10.90;2.90;;;;;;;19.60;58.05;101747.94;4947266;28;121974;-80
2022/06/14 17:22:04;;;;;;;12.90;2.90;;;;;;;19.61;58.63;101747.47;4945971;28;120410;-80
2022/06/14 17:24:52;;;;;;;9.73;2.55;;;;;;;19.58;58.61;101744.88;4945717;28;120038;-80
2022/06/14 17:30:43;;;;;;;7.80;2.80;;;;;;;19.57;58.57;101746.91;4946713;28;120066;-80
2022/06/14 17:33:15;;;;;;;10.13;3.20;;;;;;;19.63;58.69;101744.94;4965920;28;119966;-81
2022/06/14 17:35:54;;;;;;;11.70;3.20;;;;;;;19.63;58.18;101742.16;4930097;28;122766;-81
2022/06/14 17:38:35;;;;;;;12.98;3.03;;;;;;;19.64;58.76;101748.53;4951163;28;119605;-81
2022/06/14 17:41:15;;;;;;;11.15;3.20;;;;;;;19.55;58.37;101737.50;4946321;28;119952;-81
2022/06/14 17:43:44;;;;;;;9.30;2.85;;;;;;;19.62;58.31;101746.19;4947741;28;120469;-80
2022/06/14 17:46:23;;;;;;;9.23;3.33;;;;;;;19.63;57.69;101750.50;4932170;28;119969;-80
2022/06/14 17:49:00;;;;;;;13.45;3.03;;;;;;;19.63;58.28;101744.94;4937304;28;122167;-81
2022/06/14 17:51:51;;;;;;;10.27;2.95;;;;;;;19.64;58.07;101751.31;4929314;28;119625;-81
2022/06/14 17:54:49;;;;;;;14.35;3.53;;;;;;;19.66;58.66;101750.81;4901974;28;120027;-80
2022/06/14 17:57:46;;;;;;;11.02;3.08;;;;;;;19.66;58.48;101748.03;4886584;28;121711;-81
2022/06/14 18:00:21;;;;;;;11.10;2.80;;;;;;;19.68;58.84;101759.44;4890568;28;121003;-80
2022/06/14 18:02:49;;;;;;;10.07;3.25;;;;;;;19.66;58.44;101751.59;4859475;28;123006;-80
2022/06/14 18:05:37;;;;;;;6.63;2.63;;;;;;;19.65;58.11;101752.06;4884675;28;120425;-80
2022/06/14 18:08:24;;;;;;;9.55;3.25;;;;;;;19.61;58.20;101758.59;4861732;28;120450;-80
2022/06/14 18:10:55;;;;;;;7.72;2.80;;;;;;;19.60;58.23;101745.94;4877039;28;121943;-80
2022/06/14 18:13:21;;;;;;;8.13;2.55;;;;;;;19.61;58.20;101755.03;4891606;28;123268;-80
2022/06/14 18:16:04;;;;;;;13.70;2.97;;;;;;;19.59;58.09;101747.19;4905150;28;119682;-81
2022/06/14 18:18:52;;;;;;;12.60;3.00;;;;;;;19.57;58.04;101763.59;4894200;28;122883;-80
2022/06/14 18:21:24;;;;;;;10.07;2.50;;;;;;;19.56;58.15;101759.28;4860112;28;119925;-80
2022/06/14 18:24:10;;;;;;;8.10;2.80;;;;;;;19.56;57.90;101755.75;4905580;28;120202;-81
2022/06/14 18:26:37;;;;;;;10.95;3.25;;;;;;;19.55;57.62;101754.97;4901324;28;120140;-80
2022/06/14 18:29:05;;;;;;;8.85;2.80;;;;;;;19.55;57.69;101752.19;4894094;28;121342;-80
2022/06/14 18:31:37;;;;;;;10.13;2.72;;;;;;;19.54;56.90;101747.88;4959809;28;122893;-80
2022/06/14 18:34:26;;;;;;;7.70;2.72;;;;;;;19.50;57.11;101738.94;4942445;28;120343;-80
2022/06/14 18:37:04;;;;;;;8.40;3.47;;;;;;;19.54;57.89;101747.88;4949009;28;121629;-80
2022/06/14 18:40:11;;;;;;;8.65;3.00;;;;;;;19.54;58.43;101747.88;4944286;28;119966;-80
2022/06/14 18:42:36;;;;;;;8.90;3.00;;;;;;;19.50;58.00;101750.09;4964708;28;119918;-80
2022/06/14 18:47:57;;;;;;;8.52;2.88;;;;;;;19.45;58.13;101750.78;4930861;28;122507;-81
2022/06/14 18:50:46;;;;;;;9.57;2.83;;;;;;;19.44;58.10;101757.59;4931194;28;120666;-82
2022/06/14 18:53:29;;;;;;;10.20;3.40;;;;;;;19.41;58.29;101758.56;4929196;28;121004;-81
2022/06/14 18:55:56;;;;;;;10.98;3.50;;;;;;;19.37;58.45;101760.78;4912854;28;123827;-81
2022/06/14 18:58:45;;;;;;;9.50;3.25;;;;;;;19.34;57.19;101761.75;4949509;28;122516;-81
2022/06/14 19:01:12;;;;;;;10.73;3.10;;;;;;;19.31;57.92;101759.94;4942813;28;120048;-81
2022/06/14 19:04:23;;;;;;;8.02;3.13;;;;;;;19.28;58.06;101766.47;4959352;28;119912;-82
2022/06/14 19:07:10;;;;;;;9.10;2.97;;;;;;;19.25;58.30;101764.69;4946290;28;122727;-82
2022/06/14 19:09:52;;;;;;;6.47;2.83;;;;;;;19.20;58.54;101752.22;4947119;28;123711;-82
2022/06/14 19:12:46;;;;;;;9.23;3.30;;;;;;;19.12;59.31;101750.31;4947494;28;120456;-82
2022/06/14 19:15:49;;;;;;;7.93;2.90;;;;;;;19.14;59.08;101754.13;4942983;28;120539;-81
2022/06/14 19:18:34;;;;;;;10.88;3.10;;;;;;;19.12;59.39;101744.75;4930262;28;121918;-82
2022/06/14 19:21:31;;;;;;;9.60;3.22;;;;;;;19.06;59.23;101749.47;4928201;28;120545;-79
2022/06/14 19:24:20;;;;;;;11.02;3.88;;;;;;;19.07;59.26;101748.22;4933181;28;121832;-81
2022/06/14 19:27:11;;;;;;;10.15;3.33;;;;;;;19.01;59.52;101751.69;4930566;28;120186;-81
2022/06/14 19:29:48;;;;;;;9.15;3.67;;;;;;;18.96;59.39;101740.50;4948715;28;120562;-81
2022/06/14 19:32:27;;;;;;;8.77;3.70;;;;;;;18.97;59.18;101756.69;4946459;28;120687;-81
2022/06/14 19:35:31;;;;;;;7.13;2.95;;;;;;;18.93;59.38;101753.34;4961683;28;120438;-81
2022/06/14 19:38:04;;;;;;;8.77;3.28;;;;;;;18.89;59.89;101738.88;4927941;28;121337;-80
2022/06/14 19:40:33;;;;;;;7.57;3.13;;;;;;;18.93;60.54;101745.03;4928122;28;121561;-82
2022/06/14 19:43:06;;;;;;;11.68;3.17;;;;;;;18.88;60.06;101742.91;4962044;28;119668;-82
2022/06/14 19:45:33;;;;;;;6.57;3.42;;;;;;;18.82;59.83;101741.28;4927796;28;122349;-82
2022/06/14 19:48:07;;;;;;;13.48;3.63;;;;;;;18.85;60.52;101754.22;4934119;28;123786;-81
2022/06/14 19:50:41;;;;;;;9.23;3.28;;;;;;;18.80;60.03;101755.66;4946522;28;120583;-81
2022/06/14 19:53:20;;;;;;;8.70;3.25;;;;;;;18.72;60.03;101748.97;4945355;28;123016;-82
2022/06/14 19:55:50;;;;;;;11.38;3.47;;;;;;;18.74;60.31;101756.84;4945509;28;120015;-81
2022/06/14 19:58:25;;;;;;;8.10;3.63;;;;;;;18.66;60.74;101748.88;4929067;28;122677;-81
2022/06/14 20:01:30;;;;;;;8.80;3.38;;;;;;;18.63;60.88;101749.06;4928865;28;123069;-78
2022/06/14 20:03:56;;;;;;;12.37;4.17;;;;;;;18.52;61.15;101744.09;4850569;28;120322;-81
2022/06/14 20:06:34;;;;;;;11.23;3.50;;;;;;;18.56;60.67;101755.00;4918309;28;121672;-81
2022/06/14 20:09:21;;;;;;;12.07;3.67;;;;;;;18.52;60.90;101748.88;4944560;28;122978;-81
2022/06/14 20:11:47;;;;;;;8.23;3.47;;;;;;;18.37;60.67;101746.84;4964859;28;121772;-82
2022/06/14 20:14:41;;;;;;;12.25;4.07;;;;;;;18.42;61.14;101743.41;4939225;28;120055;-82
2022/06/14 20:17:46;;;;;;;9.23;3.70;;;;;;;18.38;60.96;101750.41;4902610;28;119633;-79
2022/06/14 20:20:23;;;;;;;9.57;4.22;;;;;;;18.34;61.25;101760.94;4928406;28;120359;-78
2022/06/14 20:22:49;;;;;;;11.40;4.05;;;;;;;18.28;60.96;101740.63;4945125;28;123783;-79
2022/06/14 20:25:22;;;;;;;9.63;3.92;;;;;;;18.30;61.63;101750.03;4928764;28;122019;-78
2022/06/14 20:28:11;;;;;;;13.02;4.05;;;;;;;18.27;61.86;101753.75;4945941;28;122379;-81
2022/06/14 20:30:39;;;;;;;9.20;3.88;;;;;;;18.26;61.83;101757.78;4928181;28;123468;-79
2022/06/14 20:33:21;;;;;;;12.07;4.18;;;;;;;18.22;62.11;101748.09;4912077;28;120342;-79
2022/06/14 20:35:47;;;;;;;9.73;3.80;;;;;;;18.17;62.28;101745.97;4965661;28;120791;-79
2022/06/14 20:38:18;;;;;;;7.00;3.80;;;;;;;18.17;62.30;101746.75;4929689;28;119676;-81
2022/06/14 20:40:44;;;;;;;8.73;3.67;;;;;;;18.15;62.25;101754.03;4928889;28;122751;-81
2022/06/14 20:43:18;;;;;;;8.88;3.80;;;;;;;18.10;62.45;101744.34;4943840;28;123759;-81
2022/06/14 20:45:45;;;;;;;9.50;3.67;;;;;;;18.08;62.53;101750.38;4943164;28;120006;-81
2022/06/14 20:48:20;;;;;;;8.50;3.70;;;;;;;18.02;62.46;101734.88;4959375;28;121308;-82
2022/06/14 20:50:48;;;;;;;8.15;4.07;;;;;;;18.01;62.40;101741.66;4912467;28;123322;-81
2022/06/14 20:53:14;;;;;;;10.27;4.32;;;;;;;17.96;62.76;101728.44;4944493;28;120148;-79
2022/06/14 20:55:48;;;;;;;10.85;4.85;;;;;;;18.00;62.38;101742.91;4947465;28;121911;-81
2022/06/14 20:58:16;;;;;;;13.23;4.40;;;;;;;17.97;62.67;101735.50;4962006;28;120030;-81
2022/06/14 21:00:44;;;;;;;11.10;4.55;;;;;;;17.94;62.63;101744.78;4944335;28;121606;-79
2022/06/14 21:03:22;;;;;;;9.05;3.60;;;;;;;17.89;62.61;101745.47;4945366;28;123157;-79
2022/06/14 21:05:48;;;;;;;9.25;3.88;;;;;;;17.81;62.53;101744.31;4943438;28;119940;-79
2022/06/14 21:08:18;;;;;;;10.38;4.47;;;;;;;17.85;62.31;101750.44;4946109;28;120222;-79
2022/06/14 21:13:50;;;;;;;11.05;4.85;;;;;;;17.75;62.37;101749.75;4944346;28;120085;-79
2022/06/14 21:16:20;;;;;;;11.13;5.20;;;;;;;17.67;62.29;101745.75;4942638;28;122338;-81
2022/06/14 21:18:48;;;;;;;13.25;5.25;;;;;;;17.62;62.89;101741.63;4947373;28;123970;-81
2022/06/14 21:21:24;;;;;;;13.23;5.55;;;;;;;17.66;62.84;101745.00;4945437;28;120173;-81
2022/06/14 21:23:49;;;;;;;9.50;4.72;;;;;;;17.66;63.08;101753.31;4959563;28;122957;-81
2022/06/14 21:26:18;;;;;;;9.48;5.22;;;;;;;17.61;63.33;101745.66;4945332;28;120519;-79
2022/06/14 21:28:58;;;;;;;11.43;4.97;;;;;;;17.61;63.34;101750.44;4961878;28;120068;-81
2022/06/14 21:31:26;;;;;;;10.15;5.63;;;;;;;17.65;63.54;101751.78;4940438;28;122975;-81
2022/06/14 21:34:00;;;;;;;12.73;5.65;;;;;;;17.64;63.81;101744.69;4928720;28;120551;-81
2022/06/14 21:36:42;;;;;;;11.60;5.22;;;;;;;17.62;63.89;101747.19;4943305;28;120663;-79
2022/06/14 21:39:29;;;;;;;9.30;5.00;;;;;;;17.62;63.87;101747.19;4927162;28;122868;-81
2022/06/14 21:42:04;;;;;;;10.20;5.50;;;;;;;17.55;63.91;101735.69;4932035;28;120604;-80
2022/06/14 21:44:34;;;;;;;9.98;4.80;;;;;;;17.55;63.76;101736.47;4927016;28;120886;-79
2022/06/14 21:47:00;;;;;;;13.70;5.15;;;;;;;17.58;63.91;101752.16;4928277;28;120026;-79
2022/06/14 21:49:27;;;;;;;12.05;5.53;;;;;;;17.53;63.88;101738.94;4943479;28;120216;-81
2022/06/14 21:51:56;;;;;;;11.48;5.22;;;;;;;17.56;63.91;101749.09;4941374;28;123275;-81
2022/06/14 21:54:26;;;;;;;10.25;5.43;;;;;;;17.54;63.73;101746.03;4942735;28;121595;-78
2022/06/14 21:57:00;;;;;;;10.77;5.72;;;;;;;17.47;63.83;101741.56;4926889;28;121414;-81
2022/06/14 21:59:40;;;;;;;10.20;5.78;;;;;;;17.49;63.87;101747.41;4942808;28;120095;-79
2022/06/14 22:02:11;;;;;;;10.75;5.75;;;;;;;17.47;63.70;101760.22;4928318;28;121356;-81
2022/06/14 22:04:37;;;;;;;14.75;6.10;;;;;;;17.44;63.83;101753.63;4952785;28;119863;-80
2022/06/14 22:07:06;;;;;;;14.32;6.15;;;;;;;17.37;63.70;101742.88;4947996;28;120084;-81
2022/06/14 22:09:32;;;;;;;14.82;6.10;;;;;;;17.33;63.80;101749.84;4948372;28;119986;-79
2022/06/14 22:11:57;;;;;;;11.27;6.43;;;;;;;17.35;63.90;101750.16;4929536;28;121320;-82
2022/06/14 22:14:37;;;;;;;9.45;5.97;;;;;;;17.35;63.69;101750.16;4964005;28;120070;-79
2022/06/14 22:17:11;;;;;;;14.30;6.35;;;;;;;17.32;63.79;101746.31;4931889;28;122631;-79
2022/06/14 22:19:36;;;;;;;15.85;6.50;;;;;;;17.26;64.14;101742.63;4962877;28;120320;-81
2022/06/14 22:22:02;;;;;;;14.20;6.90;;;;;;;17.30;64.22;101748.03;4947952;28;120052;-81